createdAt,value
2022-12-08T00:01:16.850Z,100984.88
2022-12-08T00:03:44.434Z,100992.22
2022-12-08T00:06:48.936Z,100993.02
2022-12-08T00:09:22.194Z,100992.58
2022-12-08T00:11:50.213Z,100993.80
2022-12-08T00:14:17.241Z,100991.46
2022-12-08T00:16:44.566Z,100993.77
2022-12-08T00:19:11.674Z,100992.92
2022-12-08T00:21:38.696Z,100992.62
2022-12-08T00:24:06.057Z,100992.61
2022-12-08T00:26:33.101Z,100992.72
2022-12-08T00:29:01.258Z,100990.21
2022-12-08T00:31:28.471Z,100988.58
2022-12-08T00:33:55.527Z,100989.48
2022-12-08T00:36:22.620Z,100991.86
2022-12-08T00:38:49.668Z,100990.85
2022-12-08T00:41:45.085Z,100994.23
2022-12-08T00:44:16.122Z,100994.96
2022-12-08T00:46:43.445Z,100996.23
2022-12-08T00:49:10.578Z,100995.44
2022-12-08T00:51:38.110Z,100993.27
2022-12-08T00:54:05.916Z,100990.90
2022-12-08T00:56:33.234Z,100990.39
2022-12-08T00:59:00.998Z,100992.41
2022-12-08T01:01:28.376Z,100994.38
2022-12-08T01:03:55.571Z,100997.10
2022-12-08T01:06:22.690Z,100996.14
2022-12-08T01:08:49.642Z,101000.27
2022-12-08T01:11:19.941Z,100995.47
2022-12-08T01:13:47.384Z,100993.94
2022-12-08T01:16:27.071Z,100991.29
2022-12-08T01:18:54.460Z,100993.52
2022-12-08T01:21:22.228Z,100994.70
2022-12-08T01:23:49.238Z,100994.48
2022-12-08T01:26:18.541Z,100995.96
2022-12-08T01:28:46.534Z,100995.43
2022-12-08T01:31:17.661Z,100991.04
2022-12-08T01:33:45.141Z,100990.45
2022-12-08T01:36:23.816Z,100990.98
2022-12-08T01:38:51.417Z,100995.48
2022-12-08T01:41:21.538Z,100993.52
2022-12-08T01:44:02.207Z,100993.98
2022-12-08T01:46:31.592Z,100992.02
2022-12-08T01:49:09.407Z,100992.24
2022-12-08T01:51:42.814Z,100986.20
2022-12-08T01:54:11.803Z,100984.83
2022-12-08T01:56:54.206Z,100981.98
2022-12-08T01:59:22.594Z,100987.04
2022-12-08T02:01:51.900Z,100984.23
2022-12-08T02:04:19.147Z,100983.81
2022-12-08T02:06:49.157Z,100980.31
2022-12-08T02:09:16.926Z,100984.13
2022-12-08T02:11:43.860Z,100984.80
2022-12-08T02:14:12.958Z,100987.59
2022-12-08T02:16:40.970Z,100988.82
2022-12-08T02:19:36.955Z,100989.55
2022-12-08T02:22:18.243Z,100985.48
2022-12-08T02:24:58.241Z,100987.80
2022-12-08T02:27:35.783Z,100983.52
2022-12-08T02:30:13.996Z,100978.48
2022-12-08T02:32:55.787Z,100975.71
2022-12-08T02:35:36.963Z,100970.42
2022-12-08T02:38:15.896Z,100964.92
2022-12-08T02:40:49.974Z,100961.15
2022-12-08T02:43:50.850Z,100961.20
2022-12-08T02:46:31.540Z,100960.31
2022-12-08T02:49:00.440Z,100964.39
2022-12-08T02:51:27.463Z,100964.20
2022-12-08T02:53:55.260Z,100964.30
2022-12-08T02:56:39.583Z,100960.18
2022-12-08T02:59:36.100Z,100964.27
2022-12-08T03:02:30.085Z,100963.41
2022-12-08T03:05:26.840Z,100959.99
2022-12-08T03:08:00.918Z,100964.54
2022-12-08T03:10:41.025Z,100964.02
2022-12-08T03:13:23.675Z,100965.23
2022-12-08T03:15:53.011Z,100963.45
2022-12-08T03:18:24.989Z,100959.60
2022-12-08T03:20:52.467Z,100953.17
2022-12-08T03:23:22.223Z,100956.42
2022-12-08T03:25:58.308Z,100962.14
2022-12-08T03:28:25.978Z,100968.08
2022-12-08T03:30:58.317Z,100972.03
2022-12-08T03:33:30.652Z,100967.86
2022-12-08T03:36:00.021Z,100970.70
2022-12-08T03:38:27.060Z,100971.08
2022-12-08T03:41:12.948Z,100975.20
2022-12-08T03:43:39.999Z,100975.67
2022-12-08T03:46:06.997Z,100976.29
2022-12-08T03:48:33.966Z,100977.66
2022-12-08T03:51:00.945Z,100980.66
2022-12-08T03:53:27.880Z,100979.97
2022-12-08T03:55:55.031Z,100980.70
2022-12-08T03:58:21.988Z,100980.01
2022-12-08T04:00:49.023Z,100979.73
2022-12-08T04:03:16.170Z,100977.35
2022-12-08T04:05:43.528Z,100979.41
2022-12-08T04:08:10.561Z,100982.27
2022-12-08T04:10:37.698Z,100981.94
2022-12-08T04:13:04.593Z,100982.89
2022-12-08T04:15:31.620Z,100980.61
2022-12-08T04:17:58.674Z,100983.14
2022-12-08T04:20:25.576Z,100988.65
2022-12-08T04:22:52.564Z,100985.46
2022-12-08T04:25:19.811Z,100987.58
2022-12-08T04:27:46.802Z,100989.91
2022-12-08T04:30:14.013Z,100990.02
2022-12-08T04:32:45.886Z,100994.45
2022-12-08T04:35:14.495Z,100998.80
2022-12-08T04:37:41.983Z,101002.65
2022-12-08T04:40:09.333Z,101001.93
2022-12-08T04:42:36.791Z,101003.01
2022-12-08T04:45:04.706Z,101008.62
2022-12-08T04:47:31.639Z,101003.77
2022-12-08T04:49:58.595Z,101007.21
2022-12-08T04:52:25.581Z,101011.88
2022-12-08T04:54:52.589Z,101018.67
2022-12-08T04:57:19.806Z,101018.35
2022-12-08T04:59:46.882Z,101014.77
2022-12-08T05:02:14.057Z,101019.32
2022-12-08T05:04:41.179Z,101020.12
2022-12-08T05:07:08.228Z,101020.39
2022-12-08T05:09:35.252Z,101022.41
2022-12-08T05:12:02.332Z,101027.22
2022-12-08T05:14:29.268Z,101029.43
2022-12-08T05:16:56.334Z,101026.67
2022-12-08T05:19:23.574Z,101029.30
2022-12-08T05:21:50.514Z,101030.09
2022-12-08T05:24:17.568Z,101031.45
2022-12-08T05:26:44.612Z,101041.92
2022-12-08T05:29:11.656Z,101041.21
2022-12-08T05:31:38.769Z,101045.70
2022-12-08T05:34:05.972Z,101049.99
2022-12-08T05:36:33.210Z,101056.23
2022-12-08T05:39:00.441Z,101058.81
2022-12-08T05:41:27.420Z,101056.05
2022-12-08T05:43:54.458Z,101060.19
2022-12-08T05:46:21.560Z,101061.66
2022-12-08T05:48:48.659Z,101064.04
2022-12-08T05:51:21.537Z,101062.23
2022-12-08T05:53:50.029Z,101063.55
2022-12-08T05:56:18.222Z,101064.49
2022-12-08T05:58:45.766Z,101068.73
2022-12-08T06:01:27.856Z,101068.63
2022-12-08T06:03:55.755Z,101066.33
2022-12-08T06:06:22.694Z,101068.52
2022-12-08T06:08:49.923Z,101072.38
2022-12-08T06:11:21.785Z,101077.42
2022-12-08T06:13:49.670Z,101077.12
2022-12-08T06:16:17.725Z,101077.92
2022-12-08T06:18:45.625Z,101080.31
2022-12-08T06:21:14.583Z,101088.60
2022-12-08T06:23:42.440Z,101093.59
2022-12-08T06:26:12.155Z,101094.27
2022-12-08T06:28:40.225Z,101095.05
2022-12-08T06:31:22.003Z,101097.60
2022-12-08T06:33:49.783Z,101099.25
2022-12-08T06:36:19.688Z,101103.91
2022-12-08T06:38:46.947Z,101107.53
2022-12-08T06:41:15.917Z,101112.60
2022-12-08T06:43:43.825Z,101116.52
2022-12-08T06:46:15.012Z,101118.37
2022-12-08T06:48:42.522Z,101116.98
2022-12-08T06:51:11.609Z,101121.84
2022-12-08T06:53:39.450Z,101122.48
2022-12-08T06:56:07.210Z,101125.10
2022-12-08T06:58:35.661Z,101128.27
2022-12-08T07:01:13.453Z,101130.41
2022-12-08T07:03:41.996Z,101132.16
2022-12-08T07:06:14.171Z,101134.67
2022-12-08T07:08:41.142Z,101140.55
2022-12-08T07:11:16.552Z,101140.37
2022-12-08T07:13:46.732Z,101143.45
2022-12-08T07:16:13.970Z,101142.86
2022-12-08T07:18:42.728Z,101147.11
2022-12-08T07:21:11.738Z,101154.95
2022-12-08T07:23:38.915Z,101157.70
2022-12-08T07:26:08.516Z,101156.38
2022-12-08T07:28:38.056Z,101154.42
2022-12-08T07:31:06.943Z,101153.86
2022-12-08T07:33:35.258Z,101158.04
2022-12-08T07:36:05.398Z,101159.20
2022-12-08T07:38:32.587Z,101161.94
2022-12-08T07:40:59.876Z,101160.93
2022-12-08T07:43:27.236Z,101159.45
2022-12-08T07:45:54.353Z,101163.09
2022-12-08T07:48:21.387Z,101164.20
2022-12-08T07:50:48.487Z,101169.56
2022-12-08T07:53:15.627Z,101170.61
2022-12-08T07:55:43.800Z,101163.36
2022-12-08T07:58:11.626Z,101163.98
2022-12-08T08:00:39.002Z,101170.80
2022-12-08T08:03:06.532Z,101167.05
2022-12-08T08:05:33.530Z,101174.30
2022-12-08T08:08:00.628Z,101175.27
2022-12-08T08:10:27.816Z,101180.98
2022-12-08T08:12:55.086Z,101182.11
2022-12-08T08:15:22.310Z,101183.46
2022-12-08T08:17:53.681Z,101191.51
2022-12-08T08:20:21.451Z,101201.46
2022-12-08T08:22:49.903Z,101200.92
2022-12-08T08:25:18.206Z,101201.86
2022-12-08T08:27:45.971Z,101206.52
2022-12-08T08:30:20.097Z,101206.55
2022-12-08T08:32:48.273Z,101207.77
2022-12-08T08:35:15.495Z,101212.95
2022-12-08T08:37:48.364Z,101218.27
2022-12-08T08:40:16.723Z,101218.70
2022-12-08T08:42:43.723Z,101222.15
2022-12-08T08:45:11.488Z,101228.65
2022-12-08T08:47:38.470Z,101229.09
2022-12-08T08:50:06.330Z,101229.27
2022-12-08T08:52:33.508Z,101233.00
2022-12-08T08:55:00.515Z,101232.54
2022-12-08T08:57:27.593Z,101237.31
2022-12-08T08:59:54.687Z,101233.98
2022-12-08T09:02:22.013Z,101238.52
2022-12-08T09:04:49.250Z,101240.92
2022-12-08T09:07:17.023Z,101239.96
2022-12-08T09:09:44.092Z,101243.84
2022-12-08T09:12:11.549Z,101243.50
2022-12-08T09:14:38.850Z,101250.45
2022-12-08T09:17:11.561Z,101250.14
2022-12-08T09:19:38.555Z,101247.88
2022-12-08T09:22:06.240Z,101245.84
2022-12-08T09:24:33.185Z,101242.40
2022-12-08T09:27:00.394Z,101239.08
2022-12-08T09:29:32.555Z,101241.98
2022-12-08T09:32:02.555Z,101244.16
2022-12-08T09:34:29.747Z,101244.70
2022-12-08T09:36:56.797Z,101245.27
2022-12-08T09:39:23.981Z,101241.59
2022-12-08T09:41:58.784Z,101238.25
2022-12-08T09:44:54.935Z,101235.70
2022-12-08T09:47:33.729Z,101234.27
2022-12-08T09:50:14.363Z,101236.90
2022-12-08T09:52:45.813Z,101235.62
2022-12-08T09:55:21.294Z,101236.84
2022-12-08T09:57:58.072Z,101235.79
2022-12-08T10:00:25.357Z,101232.65
2022-12-08T10:02:52.583Z,101231.64
2022-12-08T10:05:19.849Z,101234.29
2022-12-08T10:08:08.573Z,101234.55
2022-12-08T10:10:43.195Z,101230.59
2022-12-08T10:13:33.488Z,101232.02
2022-12-08T10:16:29.540Z,101228.99
2022-12-08T10:19:22.022Z,101226.08
2022-12-08T10:21:50.422Z,101227.70
2022-12-08T10:24:32.857Z,101227.96
2022-12-08T10:27:01.648Z,101225.09
2022-12-08T10:29:29.542Z,101222.77
2022-12-08T10:31:59.918Z,101218.46
2022-12-08T10:34:27.115Z,101218.25
2022-12-08T10:36:56.902Z,101214.77
2022-12-08T10:39:37.708Z,101213.64
2022-12-08T10:42:09.535Z,101211.59
2022-12-08T10:45:08.777Z,101204.64
2022-12-08T10:47:42.492Z,101200.63
2022-12-08T10:50:35.153Z,101196.55
2022-12-08T10:53:02.078Z,101188.56
2022-12-08T10:55:39.456Z,101183.82
2022-12-08T10:58:06.501Z,101182.02
2022-12-08T11:00:34.721Z,101178.13
2022-12-08T11:03:05.683Z,101181.79
2022-12-08T11:05:35.900Z,101179.46
2022-12-08T11:08:05.080Z,101178.50
2022-12-08T11:10:42.991Z,101179.36
2022-12-08T11:13:26.414Z,101180.23
2022-12-08T11:15:57.390Z,101176.33
2022-12-08T11:18:45.028Z,101176.06
2022-12-08T11:21:15.802Z,101177.17
2022-12-08T11:23:47.945Z,101173.54
2022-12-08T11:26:32.628Z,101171.63
2022-12-08T11:28:59.717Z,101169.47
2022-12-08T11:31:34.824Z,101167.88
2022-12-08T11:34:03.423Z,101162.17
2022-12-08T11:36:35.536Z,101160.44
2022-12-08T11:39:07.783Z,101157.41
2022-12-08T11:41:41.678Z,101156.24
2022-12-08T11:44:08.564Z,101158.56
2022-12-08T11:46:50.277Z,101155.43
2022-12-08T11:49:18.293Z,101146.64
2022-12-08T11:51:54.245Z,101145.16
2022-12-08T11:54:31.128Z,101146.37
2022-12-08T11:57:00.938Z,101140.08
2022-12-08T11:59:39.741Z,101143.63
2022-12-08T12:02:15.116Z,101140.75
2022-12-08T12:04:45.979Z,101138.86
2022-12-08T12:07:26.208Z,101139.23
2022-12-08T12:10:03.737Z,101136.09
2022-12-08T12:12:48.743Z,101140.41
2022-12-08T12:15:58.590Z,101139.36
2022-12-08T12:19:00.710Z,101140.42
2022-12-08T12:21:31.723Z,101136.65
2022-12-08T12:24:27.535Z,101129.56
2022-12-08T12:27:16.420Z,101130.89
2022-12-08T12:29:55.772Z,101128.80
2022-12-08T12:32:24.938Z,101124.46
2022-12-08T12:35:00.400Z,101127.16
2022-12-08T12:37:42.928Z,101125.73
2022-12-08T12:40:22.719Z,101127.58
2022-12-08T12:42:55.776Z,101127.07
2022-12-08T12:45:27.777Z,101126.11
2022-12-08T12:48:00.593Z,101123.73
2022-12-08T12:50:33.889Z,101125.50
2022-12-08T12:53:10.596Z,101120.89
2022-12-08T12:55:56.344Z,101125.86
2022-12-08T12:58:30.033Z,101126.17
2022-12-08T13:01:15.434Z,101125.55
2022-12-08T13:03:50.053Z,101119.98
2022-12-08T13:06:33.871Z,101120.64
2022-12-08T13:09:01.107Z,101115.08
2022-12-08T13:11:28.287Z,101118.53
2022-12-08T13:14:01.640Z,101116.77
2022-12-08T13:16:33.548Z,101121.02
2022-12-08T13:19:04.320Z,101118.98
2022-12-08T13:21:37.964Z,101121.27
2022-12-08T13:24:13.733Z,101125.52
2022-12-08T13:27:10.963Z,101127.43
2022-12-08T13:29:39.279Z,101130.71
2022-12-08T13:32:09.901Z,101131.93
2022-12-08T13:34:46.070Z,101127.44
2022-12-08T13:37:16.324Z,101132.20
2022-12-08T13:39:59.198Z,101132.25
2022-12-08T13:42:50.617Z,101133.19
2022-12-08T13:46:31.904Z,101133.49
2022-12-08T13:49:09.603Z,101137.77
2022-12-08T13:57:12.189Z,101140.95
2022-12-08T13:59:44.894Z,101140.48
2022-12-08T14:02:29.009Z,101133.75
2022-12-08T14:07:45.087Z,101126.57
2022-12-08T14:10:32.347Z,101120.64
2022-12-08T14:13:07.012Z,101119.09
2022-12-08T14:15:38.429Z,101115.48
2022-12-08T14:18:07.195Z,101108.66
2022-12-08T14:20:57.659Z,101102.61
2022-12-08T14:23:22.652Z,101098.00
2022-12-08T14:25:49.854Z,101097.17
2022-12-08T14:28:17.042Z,101105.11
2022-12-08T14:30:44.483Z,101119.02
2022-12-08T14:33:17.028Z,101128.97
2022-12-08T14:35:51.586Z,101132.50
2022-12-08T14:38:20.972Z,101133.36
2022-12-08T14:40:50.191Z,101126.95
2022-12-08T14:43:26.344Z,101128.76
2022-12-08T14:46:20.857Z,101133.73
2022-12-08T14:48:48.123Z,101132.77
2022-12-08T14:51:21.476Z,101130.83
2022-12-08T14:54:12.306Z,101126.02
2022-12-08T14:56:52.328Z,101124.17
2022-12-08T14:59:35.440Z,101125.77
2022-12-08T15:02:14.606Z,101126.20
2022-12-08T15:04:47.808Z,101127.41
2022-12-08T15:07:16.305Z,101126.73
2022-12-08T15:09:50.325Z,101134.73
2022-12-08T15:12:27.165Z,101139.39
2022-12-08T15:15:22.477Z,101145.64
2022-12-08T15:17:51.941Z,101148.71
2022-12-08T15:20:41.003Z,101152.32
2022-12-08T15:23:21.506Z,101156.88
2022-12-08T15:25:49.411Z,101156.82
2022-12-08T15:28:21.264Z,101159.09
2022-12-08T15:30:51.065Z,101159.37
2022-12-08T15:33:18.229Z,101160.65
2022-12-08T15:35:45.441Z,101162.87
2022-12-08T15:38:27.246Z,101167.69
2022-12-08T15:40:55.568Z,101176.05
2022-12-08T15:43:22.856Z,101173.72
2022-12-08T15:45:59.172Z,101174.05
2022-12-08T15:48:29.072Z,101174.04
2022-12-08T15:50:56.843Z,101175.84
2022-12-08T15:53:23.895Z,101175.61
2022-12-08T15:56:19.078Z,101180.34
2022-12-08T15:58:53.606Z,101185.58
2022-12-08T16:01:22.068Z,101188.02
2022-12-08T16:09:39.606Z,101194.67
2022-12-08T16:13:06.958Z,101200.28
2022-12-08T16:15:50.154Z,101201.70
2022-12-08T16:18:14.122Z,101204.62
2022-12-08T16:21:07.482Z,101202.77
2022-12-08T16:23:42.217Z,101203.98
2022-12-08T16:29:16.703Z,101203.89
2022-12-08T16:31:43.704Z,101210.67
2022-12-08T16:34:10.971Z,101214.76
2022-12-08T16:36:39.194Z,101210.95
2022-12-08T16:39:06.618Z,101206.81
2022-12-08T16:41:52.278Z,101216.55
2022-12-08T16:44:20.037Z,101224.21
2022-12-08T16:46:51.888Z,101230.23
2022-12-08T16:49:22.413Z,101229.17
2022-12-08T16:51:49.327Z,101229.38
2022-12-08T16:54:16.316Z,101224.83
2022-12-08T16:56:43.217Z,101226.25
2022-12-08T16:59:10.315Z,101232.45
2022-12-08T17:01:37.513Z,101234.13
2022-12-08T17:06:54.107Z,101233.48
2022-12-08T17:09:21.161Z,101238.43
2022-12-08T17:11:48.152Z,101239.20
2022-12-08T17:14:15.639Z,101235.70
2022-12-08T17:16:43.478Z,101234.41
2022-12-08T17:19:13.563Z,101241.80
2022-12-08T17:21:40.643Z,101235.39
2022-12-08T17:24:07.895Z,101231.86
2022-12-08T17:26:35.566Z,101234.63
2022-12-08T17:29:04.071Z,101238.35
2022-12-08T17:31:32.760Z,101246.00
2022-12-08T17:34:02.112Z,101244.68
2022-12-08T17:36:29.353Z,101246.81
2022-12-08T17:38:58.625Z,101252.45
2022-12-08T17:41:25.565Z,101258.81
2022-12-08T17:43:52.511Z,101261.10
2022-12-08T17:46:21.110Z,101259.05
2022-12-08T17:48:48.208Z,101263.77
2022-12-08T17:51:15.506Z,101260.81
2022-12-08T17:53:43.039Z,101261.72
2022-12-08T17:56:20.231Z,101263.80
2022-12-08T17:58:54.051Z,101262.27
2022-12-08T18:01:22.466Z,101266.55
2022-12-08T18:03:49.920Z,101275.77
2022-12-08T18:06:17.906Z,101279.05
2022-12-08T18:08:45.525Z,101283.36
2022-12-08T18:11:21.001Z,101282.41
2022-12-08T18:13:51.627Z,101280.52
2022-12-08T18:16:21.103Z,101282.44
2022-12-08T18:18:48.548Z,101280.95
2022-12-08T18:21:21.558Z,101279.34
2022-12-08T18:23:50.840Z,101278.81
2022-12-08T18:26:18.022Z,101274.42
2022-12-08T18:28:45.043Z,101271.13
2022-12-08T18:31:15.297Z,101265.61
2022-12-08T18:33:44.471Z,101267.14
2022-12-08T18:36:15.118Z,101266.92
2022-12-08T18:38:42.438Z,101266.23
2022-12-08T18:41:17.102Z,101269.34
2022-12-08T18:43:44.312Z,101269.86
2022-12-08T18:46:12.805Z,101267.05
2022-12-08T18:48:42.587Z,101260.54
2022-12-08T18:51:15.361Z,101258.21
2022-12-08T18:53:42.894Z,101255.27
2022-12-08T18:56:21.929Z,101255.30
2022-12-08T18:58:49.017Z,101255.42
2022-12-08T19:01:16.319Z,101261.08
2022-12-08T19:03:58.499Z,101267.02
2022-12-08T19:06:30.569Z,101271.89
2022-12-08T19:08:57.980Z,101271.15
2022-12-08T19:11:28.062Z,101272.80
2022-12-08T19:13:55.848Z,101275.77
2022-12-08T19:16:23.328Z,101276.09
2022-12-08T19:18:50.501Z,101280.32
2022-12-08T19:21:17.630Z,101275.39
2022-12-08T19:23:44.736Z,101279.95
2022-12-08T19:26:12.511Z,101282.74
2022-12-08T19:28:41.204Z,101284.29
2022-12-08T19:31:10.232Z,101286.77
2022-12-08T19:33:38.392Z,101284.61
2022-12-08T19:36:07.459Z,101285.09
2022-12-08T19:38:54.426Z,101283.61
2022-12-08T19:41:40.324Z,101281.77
2022-12-08T19:44:29.588Z,101282.58
2022-12-08T19:46:56.765Z,101281.23
2022-12-08T19:49:23.878Z,101290.41
2022-12-08T19:51:50.981Z,101289.56
2022-12-08T19:54:19.539Z,101284.69
2022-12-08T19:56:47.898Z,101279.45
2022-12-08T19:59:16.633Z,101286.34
2022-12-08T20:01:44.636Z,101278.34
2022-12-08T20:04:15.497Z,101276.16
2022-12-08T20:06:43.118Z,101275.90
2022-12-08T20:09:10.664Z,101276.75
2022-12-08T20:11:38.303Z,101276.32
2022-12-08T20:14:05.812Z,101277.54
2022-12-08T20:16:33.274Z,101280.45
2022-12-08T20:19:00.499Z,101276.38
2022-12-08T20:21:28.033Z,101274.52
2022-12-08T20:23:55.093Z,101274.88
2022-12-08T20:26:23.905Z,101274.20
2022-12-08T20:28:51.597Z,101273.40
2022-12-08T20:31:24.691Z,101275.29
2022-12-08T20:33:52.481Z,101271.32
2022-12-08T20:36:21.270Z,101267.23
2022-12-08T20:38:50.324Z,101269.50
2022-12-08T20:41:18.314Z,101262.35
2022-12-08T20:43:47.169Z,101262.23
2022-12-08T20:46:16.761Z,101270.75
2022-12-08T20:48:44.944Z,101277.10
2022-12-08T20:51:17.124Z,101281.77
2022-12-08T20:53:44.405Z,101288.23
2022-12-08T20:56:20.274Z,101292.73
2022-12-08T20:58:48.370Z,101295.08
2022-12-08T21:01:18.687Z,101290.42
2022-12-08T21:03:46.996Z,101284.16
2022-12-08T21:06:15.465Z,101285.91
2022-12-08T21:08:43.075Z,101281.79
2022-12-08T21:11:10.671Z,101276.75
2022-12-08T21:13:39.076Z,101276.66
2022-12-08T21:16:09.390Z,101270.94
2022-12-08T21:18:39.677Z,101265.61
2022-12-08T21:21:14.429Z,101261.79
2022-12-08T21:23:42.730Z,101258.19
2022-12-08T21:26:19.013Z,101256.55
2022-12-08T21:28:46.658Z,101258.71
2022-12-08T21:31:17.012Z,101259.58
2022-12-08T21:33:45.196Z,101261.17
2022-12-08T21:36:14.636Z,101260.31
2022-12-08T21:38:42.973Z,101261.70
2022-12-08T21:41:16.576Z,101272.19
2022-12-08T21:43:43.766Z,101280.23
2022-12-08T21:46:17.487Z,101281.55
2022-12-08T21:48:44.962Z,101288.36
2022-12-08T21:51:12.236Z,101294.00
2022-12-08T21:53:39.309Z,101295.74
2022-12-08T21:56:10.143Z,101289.32
2022-12-08T21:58:39.857Z,101290.24
2022-12-08T22:01:09.044Z,101284.58
2022-12-08T22:03:38.333Z,101279.81
2022-12-08T22:06:07.529Z,101280.39
2022-12-08T22:08:34.867Z,101285.55
2022-12-08T22:11:02.857Z,101291.64
2022-12-08T22:13:30.337Z,101294.98
2022-12-08T22:15:58.938Z,101294.67
2022-12-08T22:18:26.294Z,101286.83
2022-12-08T22:20:54.041Z,101283.80
2022-12-08T22:23:22.104Z,101286.28
2022-12-08T22:26:03.063Z,101286.79
2022-12-08T22:28:35.472Z,101280.91
2022-12-08T22:31:19.654Z,101280.20
2022-12-08T22:33:48.887Z,101276.06
2022-12-08T22:36:26.583Z,101277.23
2022-12-08T22:38:55.273Z,101277.01
2022-12-08T22:41:22.832Z,101279.64
2022-12-08T22:43:50.904Z,101275.61
2022-12-08T22:46:20.757Z,101275.02
2022-12-08T22:48:48.688Z,101275.55
2022-12-08T22:51:16.217Z,101275.27
2022-12-08T22:53:45.022Z,101275.16
2022-12-08T22:56:13.554Z,101269.98
2022-12-08T22:58:41.900Z,101272.56
2022-12-08T23:01:09.482Z,101271.13
2022-12-08T23:03:36.498Z,101271.81
2022-12-08T23:06:12.537Z,101273.25
2022-12-08T23:08:40.687Z,101274.14
2022-12-08T23:11:08.158Z,101271.34
2022-12-08T23:13:35.244Z,101276.38
2022-12-08T23:16:02.456Z,101274.45
2022-12-08T23:18:29.648Z,101273.83
2022-12-08T23:20:56.678Z,101269.48
2022-12-08T23:23:23.912Z,101266.36
2022-12-08T23:25:50.949Z,101265.52
2022-12-08T23:28:18.146Z,101259.91
2022-12-08T23:30:45.687Z,101256.66
2022-12-08T23:33:13.361Z,101254.81
2022-12-08T23:35:40.521Z,101257.20
2022-12-08T23:38:07.614Z,101253.38
2022-12-08T23:40:34.703Z,101252.39
2022-12-08T23:43:01.747Z,101250.55
2022-12-08T23:45:29.005Z,101242.80
2022-12-08T23:47:56.142Z,101240.02
2022-12-08T23:50:23.103Z,101237.29
2022-12-08T23:52:50.055Z,101229.05
2022-12-08T23:55:17.073Z,101222.39
2022-12-08T23:57:44.194Z,101220.86
